Historyczne dane pomiarowe

Dodano dane terminowe – wersja testowa.

Dane z okresu 1951-2019

Wersja bazy: 1.34 [2019-03-16, lista zmian], aktualizacja planowana na 2019-04-15

Dane meteo z obszaru Polski uzyskane na podstawie danych udostępnionych przez Instytut Meteorologii i Gospodarki Wodnej – Państwowy Instytut Badawczy.

 

Wybierz Datę:    

       

TemperaturaWilgotnośćWiatrCiśnienieOpadyŚniegCzas trwania zjawisk
 Stacja t tx tn tng RH VA  wxwx mslp ppp RRR   cm mm wxwxwxwxwxwxwx
1925-08-13 18.7 24.8 13.2--------- 0.0--x---------
1925-08-14 19.9 26.8 12.5--------- 0.0--x---------
1925-08-15 16.0 19.4 14.5--------- 1.0--x---------
1925-08-16 14.7 18.0 11.1--------- 0.0--x---------
1925-08-17 15.1 17.1 13.2--------- 0.1--x---------
1925-08-18 15.8 21.0 12.1--------- 0.1--x---------
1925-08-19 15.6 18.8 9.6--------- 0.0--x---------
1925-08-20 16.5 20.9 11.0--------- 0.9--x---------
1925-08-21 16.8 20.3 13.5--------- 0.0--x---------
1925-08-22 18.2 23.9 10.8--------- 0.1--x---------
1925-08-23 15.0 18.3 12.9--------- 0.0--x---------
1925-08-24 18.6 24.6 9.6--------- 19.2--x---------
1925-08-25 19.4 25.5 15.3--------- 0.0--x---------
1925-08-26 17.2 20.4 14.5--------- 0.0--x---------
1925-08-27 17.2 21.4 14.6--------- 2.4--x---------
1925-08-28 16.5 21.8 12.8--------- 2.0--x---------
1925-08-29 16.3 19.5 10.7--------- 0.0--x---------
1925-08-30 14.1 17.4 12.1--------- 0.2--x---------
1925-08-31 15.0 18.4 12.3--------- 1.3--x---------
1925-09-01 17.2 22.7 13.8--------- 0.3--x---------
1925-09-02 12.7 16.5 10.1--------- 12.5--x---------
1925-09-03 11.7 14.0 10.5--------- 9.1--x---------
1925-09-04 10.5 14.1 8.5--------- 4.1--x---------
1925-09-05 10.4 12.8 6.6--------- 3.1--x---------
1925-09-06 10.2 12.9 8.4--------- 0.0--x---------
1925-09-07 11.7 13.4 8.2--------- 0.0--x---------
1925-09-08 11.1 12.0 9.5--------- 0.6--x---------
1925-09-09 12.0 15.5 9.9--------- 2.7--x---------
1925-09-10 12.4 15.3 10.0--------- 3.6--x---------
1925-09-11 8.3 10.4 6.2--------- 4.2--x---------
10.8 ms

 

Źródłem pochodzenia danych jest Instytut Meteorologii i Gospodarki Wodnej – Państwowy Instytut Badawczy. Dane Instytutu Meteorologii i Gospodarki Wodnej – Państwowego Instytutu Badawczego zostały przetworzone.

Dane źródłowe można odnaleźć na stronie https://dane.imgw.pl